^^
Caerphilly Weather Station Historical Data
 
Daily Summary for December 08, 2019 Units:  Metric    English   Both
Daily Weekly Monthly Yearly Custom
  Current: High: Low: Average:
Temperature: 8.2 °C 11.8 °C 6.7 °C 9.7 °C
Dew Point: 6.4 °C 11.3 °C 4.2 °C 8 °C
Humidity: 88% 97% 77% 90%
Wind Speed: 33.8km/h 35.4km/h 9.7km/h 20.6km/h
Wind Gust: 56.3km/h 59.5km/h - -
WindWest - - West
Pressure: 1000.0 hPa 1002.2 hPa 999.1 hPa -
Precipitation: 9.0 mm      
Historical Graphs
 
 
Tabular Data for December 08, 2019
Time Temperature Dew Point Pressure Wind Wind Speed Wind Gust Humidity Rainfall Rate (Hourly) solar
00:00 9.9 °C 9.3 °C 1002.2 hPa SSW 9.7 km/h 19.3 km/h 96% 0.8 mm 0.00 W/m2
00:05 10.0 °C 9.4 °C 1002.0 hPa SW 12.9 km/h 25.7 km/h 96% 0.6 mm 0.00 W/m2
00:10 10.1 °C 9.5 °C 1002.0 hPa SW 14.5 km/h 32.2 km/h 96% 0.4 mm 0.00 W/m2
00:15 10.2 °C 9.6 °C 1002.0 hPa SW 20.9 km/h 40.2 km/h 96% 0.6 mm 0.00 W/m2
00:20 10.2 °C 9.6 °C 1001.8 hPa SW 11.3 km/h 29.0 km/h 96% 0.4 mm 0.00 W/m2
00:25 10.3 °C 9.7 °C 1001.6 hPa SW 16.1 km/h 32.2 km/h 96% 0.6 mm 0.00 W/m2
00:30 10.3 °C 9.7 °C 1001.3 hPa SW 14.5 km/h 25.7 km/h 96% 0.4 mm 0.00 W/m2
00:35 10.3 °C 9.7 °C 1001.2 hPa SW 9.7 km/h 27.4 km/h 96% 0.2 mm 0.00 W/m2
00:40 10.4 °C 9.9 °C 1001.2 hPa SSW 16.1 km/h 33.8 km/h 97% 0.4 mm 0.00 W/m2
00:45 10.7 °C 10.2 °C 1001.2 hPa SW 16.1 km/h 45.1 km/h 97% 0.2 mm 0.00 W/m2
00:50 10.7 °C 10.3 °C 1000.9 hPa SW 12.9 km/h 25.7 km/h 97% 0.2 mm 0.00 W/m2
00:55 10.8 °C 10.3 °C 1000.7 hPa SW 14.5 km/h 32.2 km/h 97% 0.0 mm 0.00 W/m2
01:00 10.9 °C 10.4 °C 1000.6 hPa SW 19.3 km/h 40.2 km/h 97% 0.4 mm 0.00 W/m2
01:05 11.0 °C 10.6 °C 1000.4 hPa WSW 16.1 km/h 37.0 km/h 97% 0.0 mm 0.00 W/m2
01:10 11.1 °C 10.6 °C 1000.3 hPa WSW 16.1 km/h 25.7 km/h 97% 0.4 mm 0.00 W/m2
01:15 11.1 °C 10.7 °C 1000.0 hPa WSW 16.1 km/h 32.2 km/h 97% 0.0 mm 0.00 W/m2
01:20 11.2 °C 10.7 °C 1000.0 hPa WSW 25.7 km/h 43.4 km/h 97% 0.2 mm 0.00 W/m2
01:25 11.3 °C 10.8 °C 999.7 hPa WSW 20.9 km/h 37.0 km/h 97% 0.2 mm 0.00 W/m2
01:30 11.3 °C 10.9 °C 999.5 hPa WSW 27.4 km/h 37.0 km/h 97% 0.0 mm 0.00 W/m2
01:35 11.4 °C 11.0 °C 999.5 hPa WSW 16.1 km/h 33.8 km/h 97% 0.0 mm 0.00 W/m2
01:40 11.5 °C 11.0 °C 999.3 hPa SW 22.5 km/h 35.4 km/h 97% 0.0 mm 0.00 W/m2
01:45 11.6 °C 11.1 °C 999.2 hPa SW 25.7 km/h 41.8 km/h 97% 0.2 mm 0.00 W/m2
01:50 11.6 °C 11.2 °C 999.1 hPa WSW 25.7 km/h 48.3 km/h 97% 0.0 mm 0.00 W/m2
01:55 11.7 °C 11.2 °C 999.1 hPa WSW 20.9 km/h 37.0 km/h 97% 0.2 mm 0.00 W/m2
02:00 11.7 °C 11.3 °C 999.1 hPa WSW 35.4 km/h 51.5 km/h 97% 0.2 mm 0.00 W/m2
02:05 11.8 °C 11.3 °C 999.3 hPa WSW 20.9 km/h 46.7 km/h 97% 0.2 mm 0.00 W/m2
02:10 11.7 °C 11.2 °C 999.3 hPa WSW 33.8 km/h 48.3 km/h 97% 0.0 mm 0.00 W/m2
02:15 11.6 °C 11.2 °C 999.2 hPa WSW 20.9 km/h 45.1 km/h 97% 0.0 mm 0.00 W/m2
02:20 11.6 °C 11.1 °C 999.3 hPa West 16.1 km/h 56.3 km/h 97% 0.0 mm 0.00 W/m2
02:25 11.4 °C 11.0 °C 999.1 hPa West 22.5 km/h 45.1 km/h 97% 0.0 mm 0.00 W/m2
02:30 11.4 °C 10.9 °C 999.2 hPa West 24.1 km/h 35.4 km/h 97% 0.2 mm 0.00 W/m2
02:35 11.4 °C 11.0 °C 999.1 hPa West 25.7 km/h 43.4 km/h 97% 0.2 mm 0.00 W/m2
02:40 11.5 °C 11.1 °C 999.2 hPa WSW 24.1 km/h 40.2 km/h 97% 0.0 mm 0.00 W/m2
02:45 11.3 °C 10.9 °C 999.2 hPa WSW 20.9 km/h 59.5 km/h 97% 0.0 mm 0.00 W/m2
02:50 11.2 °C 10.6 °C 999.2 hPa West 20.9 km/h 49.9 km/h 96% 0.0 mm 0.00 W/m2
02:55 11.1 °C 10.4 °C 999.1 hPa West 33.8 km/h 56.3 km/h 96% 0.0 mm 0.00 W/m2
03:00 10.9 °C 10.3 °C 999.2 hPa West 25.7 km/h 38.6 km/h 96% 0.0 mm 0.00 W/m2
03:05 10.8 °C 10.2 °C 999.3 hPa West 27.4 km/h 51.5 km/h 96% 0.0 mm 0.00 W/m2
03:10 10.8 °C 10.2 °C 999.2 hPa West 20.9 km/h 40.2 km/h 96% 0.0 mm 0.00 W/m2
03:15 10.7 °C 10.1 °C 999.1 hPa West 25.7 km/h 45.1 km/h 96% 0.0 mm 0.00 W/m2
03:20 10.7 °C 10.1 °C 999.2 hPa West 25.7 km/h 57.9 km/h 96% 0.0 mm 0.00 W/m2
03:25 10.6 °C 10.0 °C 999.2 hPa West 22.5 km/h 43.4 km/h 96% 0.0 mm 0.00 W/m2
03:30 10.6 °C 9.8 °C 999.3 hPa West 24.1 km/h 48.3 km/h 95% 0.0 mm 0.00 W/m2
03:35 10.5 °C 9.7 °C 999.3 hPa West 25.7 km/h 38.6 km/h 95% 0.0 mm 0.00 W/m2
03:40 10.4 °C 9.7 °C 999.3 hPa West 22.5 km/h 37.0 km/h 95% 0.0 mm 0.00 W/m2
03:45 10.4 °C 9.6 °C 999.3 hPa West 24.1 km/h 43.4 km/h 95% 0.0 mm 0.00 W/m2
03:50 10.3 °C 9.6 °C 999.4 hPa West 19.3 km/h 37.0 km/h 95% 0.0 mm 0.00 W/m2
03:55 10.3 °C 9.3 °C 999.4 hPa West 22.5 km/h 33.8 km/h 94% 0.0 mm 0.00 W/m2
04:00 10.2 °C 9.3 °C 999.4 hPa West 22.5 km/h 40.2 km/h 94% 0.0 mm 0.00 W/m2
04:05 10.2 °C 9.2 °C 999.5 hPa West 25.7 km/h 48.3 km/h 94% 0.0 mm 0.00 W/m2
04:10 10.1 °C 9.2 °C 999.5 hPa West 20.9 km/h 35.4 km/h 94% 0.0 mm 0.00 W/m2
04:15 10.1 °C 9.0 °C 999.5 hPa West 22.5 km/h 40.2 km/h 93% 0.0 mm 0.00 W/m2
04:20 10.0 °C 8.9 °C 999.5 hPa West 24.1 km/h 35.4 km/h 93% 0.0 mm 0.00 W/m2
04:25 9.9 °C 8.8 °C 999.4 hPa West 27.4 km/h 41.8 km/h 93% 0.0 mm 0.00 W/m2
04:30 9.9 °C 8.7 °C 999.4 hPa West 25.7 km/h 41.8 km/h 92% 0.0 mm 0.00 W/m2
04:35 9.9 °C 8.7 °C 999.4 hPa West 20.9 km/h 32.2 km/h 92% 0.0 mm 0.00 W/m2
04:40 9.9 °C 8.5 °C 999.4 hPa West 32.2 km/h 48.3 km/h 91% 0.0 mm 0.00 W/m2
04:45 9.9 °C 8.5 °C 999.5 hPa West 22.5 km/h 46.7 km/h 91% 0.0 mm 0.00 W/m2
04:50 9.9 °C 8.5 °C 999.5 hPa West 19.3 km/h 48.3 km/h 91% 0.0 mm 0.00 W/m2
04:55 9.8 °C 8.4 °C 999.5 hPa West 19.3 km/h 32.2 km/h 91% 0.0 mm 0.00 W/m2
05:00 9.8 °C 8.3 °C 999.6 hPa West 22.5 km/h 38.6 km/h 90% 0.0 mm 0.00 W/m2
05:05 9.8 °C 8.2 °C 999.6 hPa West 19.3 km/h 38.6 km/h 90% 0.0 mm 0.00 W/m2
05:10 9.7 °C 8.2 °C 999.6 hPa West 14.5 km/h 32.2 km/h 90% 0.0 mm 0.00 W/m2
05:15 9.7 °C 8.2 °C 999.6 hPa West 16.1 km/h 29.0 km/h 90% 0.0 mm 0.00 W/m2
05:20 9.7 °C 8.1 °C 999.7 hPa West 20.9 km/h 41.8 km/h 90% 0.0 mm 0.00 W/m2
05:25 9.7 °C 8.1 °C 999.6 hPa West 14.5 km/h 35.4 km/h 90% 0.0 mm 0.00 W/m2
05:30 9.7 °C 7.9 °C 999.8 hPa West 20.9 km/h 32.2 km/h 89% 0.0 mm 0.00 W/m2
05:35 9.7 °C 8.0 °C 999.8 hPa West 14.5 km/h 40.2 km/h 89% 0.0 mm 0.00 W/m2
05:40 9.7 °C 8.2 °C 999.8 hPa West 12.9 km/h 29.0 km/h 90% 0.0 mm 0.00 W/m2
05:45 9.6 °C 7.9 °C 999.9 hPa West 20.9 km/h 40.2 km/h 89% 0.0 mm 0.00 W/m2
05:50 9.6 °C 7.8 °C 1000.0 hPa West 14.5 km/h 27.4 km/h 89% 0.0 mm 0.00 W/m2
05:55 9.4 °C 7.5 °C 1000.1 hPa West 19.3 km/h 41.8 km/h 88% 0.0 mm 0.00 W/m2
06:00 9.3 °C 7.2 °C 1000.2 hPa West 16.1 km/h 32.2 km/h 87% 0.0 mm 0.00 W/m2
06:05 9.2 °C 7.1 °C 1000.2 hPa West 22.5 km/h 37.0 km/h 87% 0.0 mm 0.00 W/m2
06:10 9.2 °C 7.1 °C 1000.2 hPa West 19.3 km/h 32.2 km/h 87% 0.0 mm 0.00 W/m2
06:15 9.2 °C 7.2 °C 1000.3 hPa West 14.5 km/h 27.4 km/h 87% 0.0 mm 0.00 W/m2
06:20 9.2 °C 7.2 °C 1000.4 hPa West 16.1 km/h 27.4 km/h 87% 0.0 mm 0.00 W/m2
06:25 9.2 °C 7.2 °C 1000.5 hPa West 20.9 km/h 33.8 km/h 87% 0.0 mm 0.00 W/m2
06:30 9.2 °C 7.2 °C 1000.4 hPa West 25.7 km/h 35.4 km/h 87% 0.0 mm 0.00 W/m2
06:35 9.3 °C 7.1 °C 1000.5 hPa West 19.3 km/h 37.0 km/h 86% 0.0 mm 0.00 W/m2
06:40 9.2 °C 7.0 °C 1000.4 hPa West 19.3 km/h 35.4 km/h 86% 0.0 mm 0.00 W/m2
06:45 9.2 °C 6.9 °C 1000.5 hPa West 16.1 km/h 35.4 km/h 86% 0.0 mm 0.00 W/m2
06:50 9.1 °C 6.7 °C 1000.5 hPa WNW 24.1 km/h 37.0 km/h 85% 0.0 mm 0.00 W/m2
06:55 9.1 °C 6.7 °C 1000.5 hPa West 22.5 km/h 41.8 km/h 85% 0.0 mm 0.00 W/m2
07:00 9.0 °C 6.6 °C 1000.6 hPa West 20.9 km/h 35.4 km/h 85% 0.0 mm 0.00 W/m2
07:05 8.9 °C 6.5 °C 1000.6 hPa West 16.1 km/h 32.2 km/h 85% 0.0 mm 0.00 W/m2
07:10 8.8 °C 6.4 °C 1000.6 hPa West 19.3 km/h 35.4 km/h 85% 0.0 mm 0.00 W/m2
07:15 8.8 °C 6.4 °C 1000.6 hPa West 22.5 km/h 35.4 km/h 85% 0.0 mm 0.00 W/m2
07:20 8.8 °C 6.6 °C 1000.6 hPa WSW 19.3 km/h 27.4 km/h 86% 0.0 mm 0.00 W/m2
07:25 8.8 °C 6.6 °C 1000.6 hPa West 20.9 km/h 32.2 km/h 86% 0.0 mm 0.00 W/m2
07:30 8.8 °C 6.6 °C 1000.6 hPa West 20.9 km/h 29.0 km/h 86% 0.0 mm 0.00 W/m2
07:35 8.8 °C 6.4 °C 1000.7 hPa West 22.5 km/h 45.1 km/h 85% 0.0 mm 0.00 W/m2
07:40 8.8 °C 6.2 °C 1000.7 hPa West 19.3 km/h 33.8 km/h 84% 0.0 mm 0.00 W/m2
07:45 8.8 °C 6.2 °C 1000.6 hPa West 14.5 km/h 32.2 km/h 84% 0.0 mm 0.00 W/m2
07:50 8.7 °C 6.2 °C 1000.7 hPa West 20.9 km/h 32.2 km/h 84% 0.0 mm 0.00 W/m2
07:55 8.7 °C 6.2 °C 1000.6 hPa West 12.9 km/h 37.0 km/h 84% 0.0 mm 0.00 W/m2
08:00 8.7 °C 6.2 °C 1000.6 hPa West 20.9 km/h 33.8 km/h 84% 0.0 mm 0.00 W/m2
08:05 8.7 °C 6.2 °C 1000.7 hPa West 19.3 km/h 33.8 km/h 84% 0.0 mm 0.00 W/m2
08:10 8.8 °C 6.2 °C 1000.7 hPa West 14.5 km/h 27.4 km/h 84% 0.0 mm 0.00 W/m2
08:15 8.8 °C 6.4 °C 1000.8 hPa WSW 16.1 km/h 29.0 km/h 85% 0.0 mm 5.00 W/m2
08:20 8.8 °C 6.6 °C 1001.0 hPa WSW 14.5 km/h 22.5 km/h 86% 0.0 mm 7.00 W/m2
08:25 8.7 °C 6.5 °C 1001.0 hPa WSW 19.3 km/h 32.2 km/h 86% 0.0 mm 14.00 W/m2
08:30 8.7 °C 6.3 °C 1001.0 hPa WSW 20.9 km/h 32.2 km/h 85% 0.0 mm 12.00 W/m2
08:35 8.6 °C 6.2 °C 1000.9 hPa West 14.5 km/h 32.2 km/h 85% 0.0 mm 12.00 W/m2
08:40 8.6 °C 6.2 °C 1001.0 hPa West 16.1 km/h 27.4 km/h 85% 0.0 mm 14.00 W/m2
08:45 8.6 °C 6.2 °C 1001.0 hPa WSW 16.1 km/h 27.4 km/h 85% 0.0 mm 35.00 W/m2
08:50 8.7 °C 6.3 °C 1001.1 hPa West 16.1 km/h 27.4 km/h 85% 0.0 mm 21.00 W/m2
08:55 8.9 °C 6.5 °C 1001.0 hPa West 16.1 km/h 45.1 km/h 85% 0.0 mm 25.00 W/m2
09:00 8.9 °C 6.6 °C 1001.0 hPa WSW 16.1 km/h 32.2 km/h 85% 0.0 mm 16.00 W/m2
09:05 9.0 °C 6.6 °C 1001.1 hPa WSW 22.5 km/h 32.2 km/h 85% 0.0 mm 23.00 W/m2
09:10 8.9 °C 6.2 °C 1001.1 hPa West 24.1 km/h 43.4 km/h 83% 0.0 mm 26.00 W/m2
09:15 8.7 °C 5.8 °C 1001.0 hPa West 24.1 km/h 33.8 km/h 82% 0.0 mm 26.00 W/m2
09:20 8.6 °C 5.5 °C 1000.9 hPa West 22.5 km/h 41.8 km/h 81% 0.0 mm 26.00 W/m2
09:25 8.4 °C 5.4 °C 1001.0 hPa WSW 14.5 km/h 33.8 km/h 81% 0.0 mm 32.00 W/m2
09:30 8.3 °C 5.3 °C 1001.1 hPa West 14.5 km/h 32.2 km/h 81% 0.0 mm 60.00 W/m2
09:35 8.4 °C 5.5 °C 1001.1 hPa WSW 19.3 km/h 43.4 km/h 82% 0.0 mm 49.00 W/m2
09:40 8.4 °C 5.6 °C 1001.0 hPa WSW 20.9 km/h 29.0 km/h 82% 0.0 mm 58.00 W/m2
09:45 8.5 °C 5.8 °C 1000.9 hPa West 14.5 km/h 32.2 km/h 83% 0.0 mm 58.00 W/m2
09:50 8.6 °C 6.0 °C 1000.9 hPa West 19.3 km/h 33.8 km/h 84% 0.0 mm 35.00 W/m2
09:55 8.6 °C 6.2 °C 1000.8 hPa West 20.9 km/h 35.4 km/h 85% 0.0 mm 65.00 W/m2
10:00 8.7 °C 6.3 °C 1000.8 hPa WSW 20.9 km/h 41.8 km/h 85% 0.0 mm 81.00 W/m2
10:05 8.8 °C 6.4 °C 1000.7 hPa West 19.3 km/h 32.2 km/h 85% 0.0 mm 79.00 W/m2
10:10 8.9 °C 6.5 °C 1000.8 hPa WSW 20.9 km/h 29.0 km/h 85% 0.0 mm 81.00 W/m2
10:15 9.0 °C 6.3 °C 1000.9 hPa WSW 25.7 km/h 46.7 km/h 83% 0.0 mm 51.00 W/m2
10:20 9.0 °C 6.1 °C 1000.8 hPa WSW 29.0 km/h 46.7 km/h 82% 0.0 mm 97.00 W/m2
10:25 9.1 °C 6.0 °C 1000.8 hPa West 32.2 km/h 46.7 km/h 81% 0.0 mm 86.00 W/m2
10:30 9.2 °C 5.9 °C 1000.9 hPa West 24.1 km/h 38.6 km/h 80% 0.0 mm 90.00 W/m2
10:35 9.2 °C 5.8 °C 1001.1 hPa WSW 33.8 km/h 56.3 km/h 79% 0.0 mm 174.00 W/m2
10:40 9.3 °C 5.5 °C 1001.1 hPa West 32.2 km/h 56.3 km/h 77% 0.0 mm 100.00 W/m2
10:45 9.4 °C 5.6 °C 1000.9 hPa West 19.3 km/h 41.8 km/h 77% 0.0 mm 134.00 W/m2
10:50 9.4 °C 5.7 °C 1000.7 hPa West 22.5 km/h 41.8 km/h 78% 0.0 mm 190.00 W/m2
10:55 9.3 °C 5.9 °C 1000.5 hPa West 20.9 km/h 32.2 km/h 79% 0.0 mm 56.00 W/m2
11:00 9.3 °C 5.8 °C 1000.7 hPa West 20.9 km/h 38.6 km/h 79% 0.0 mm 32.00 W/m2
11:05 8.9 °C 6.0 °C 1001.2 hPa West 25.7 km/h 43.4 km/h 82% 0.8 mm 21.00 W/m2
11:10 7.7 °C 4.7 °C 1000.9 hPa West 25.7 km/h 45.1 km/h 81% 1.4 mm 46.00 W/m2
11:15 6.9 °C 4.2 °C 1000.7 hPa West 20.9 km/h 40.2 km/h 83% 0.2 mm 53.00 W/m2
11:20 6.7 °C 4.5 °C 1000.7 hPa WNW 19.3 km/h 35.4 km/h 86% 0.0 mm 30.00 W/m2
11:25 6.8 °C 4.9 °C 1000.4 hPa West 19.3 km/h 35.4 km/h 88% 0.2 mm 160.00 W/m2
11:30 7.2 °C 5.6 °C 1000.4 hPa West 12.9 km/h 29.0 km/h 90% 0.0 mm 190.00 W/m2
11:35 7.6 °C 6.2 °C 1000.2 hPa West 19.3 km/h 29.0 km/h 91% 0.0 mm 230.00 W/m2
11:40 7.9 °C 6.4 °C 1000.1 hPa West 25.7 km/h 33.8 km/h 90% 0.0 mm 223.00 W/m2
11:45 8.2 °C 6.4 °C 1000.0 hPa West 33.8 km/h 56.3 km/h 88% 0.0 mm 236.00 W/m2
Caerphilly,Wales
Compliments of Weather Underground - 4 mb